sensor_id;sensor_type;location;lat;lon;timestamp;P1;durP1;ratioP1;P2;durP2;ratioP2
7080;SDS011;3582;51.506;11.948;2023-04-06T00:00:33;26.90;;;18.40;;
7080;SDS011;3582;51.506;11.948;2023-04-06T00:02:59;24.20;;;18.37;;
7080;SDS011;3582;51.506;11.948;2023-04-06T00:05:25;24.60;;;19.25;;
7080;SDS011;3582;51.506;11.948;2023-04-06T00:07:52;24.13;;;18.15;;
7080;SDS011;3582;51.506;11.948;2023-04-06T00:10:20;20.73;;;16.77;;
7080;SDS011;3582;51.506;11.948;2023-04-06T00:12:46;24.90;;;19.67;;
7080;SDS011;3582;51.506;11.948;2023-04-06T00:15:12;22.10;;;18.77;;
7080;SDS011;3582;51.506;11.948;2023-04-06T00:17:38;24.33;;;19.30;;
7080;SDS011;3582;51.506;11.948;2023-04-06T00:20:04;22.90;;;18.03;;
7080;SDS011;3582;51.506;11.948;2023-04-06T00:22:31;26.98;;;20.60;;
7080;SDS011;3582;51.506;11.948;2023-04-06T00:24:57;20.90;;;17.97;;
7080;SDS011;3582;51.506;11.948;2023-04-06T00:27:23;26.17;;;20.33;;
7080;SDS011;3582;51.506;11.948;2023-04-06T00:29:49;28.88;;;18.98;;
7080;SDS011;3582;51.506;11.948;2023-04-06T00:32:15;27.98;;;18.80;;
7080;SDS011;3582;51.506;11.948;2023-04-06T00:34:41;22.27;;;19.70;;
7080;SDS011;3582;51.506;11.948;2023-04-06T00:37:07;21.73;;;18.50;;
7080;SDS011;3582;51.506;11.948;2023-04-06T00:39:33;21.27;;;19.07;;
7080;SDS011;3582;51.506;11.948;2023-04-06T00:41:59;20.77;;;17.57;;
7080;SDS011;3582;51.506;11.948;2023-04-06T00:44:25;25.13;;;18.15;;
7080;SDS011;3582;51.506;11.948;2023-04-06T00:46:51;24.53;;;18.60;;
7080;SDS011;3582;51.506;11.948;2023-04-06T00:49:17;18.60;;;15.83;;
7080;SDS011;3582;51.506;11.948;2023-04-06T00:51:43;23.52;;;17.42;;
7080;SDS011;3582;51.506;11.948;2023-04-06T00:54:09;25.10;;;16.63;;
7080;SDS011;3582;51.506;11.948;2023-04-06T00:56:35;19.52;;;17.27;;
7080;SDS011;3582;51.506;11.948;2023-04-06T00:59:01;19.10;;;15.40;;
7080;SDS011;3582;51.506;11.948;2023-04-06T01:01:28;20.30;;;17.83;;
7080;SDS011;3582;51.506;11.948;2023-04-06T01:03:54;17.70;;;14.80;;
7080;SDS011;3582;51.506;11.948;2023-04-06T01:06:20;27.85;;;17.60;;
7080;SDS011;3582;51.506;11.948;2023-04-06T01:08:46;19.23;;;15.10;;
7080;SDS011;3582;51.506;11.948;2023-04-06T01:11:12;20.80;;;16.67;;
7080;SDS011;3582;51.506;11.948;2023-04-06T01:13:38;22.10;;;16.10;;
7080;SDS011;3582;51.506;11.948;2023-04-06T01:16:04;17.20;;;15.50;;
7080;SDS011;3582;51.506;11.948;2023-04-06T01:18:30;19.02;;;16.92;;
7080;SDS011;3582;51.506;11.948;2023-04-06T01:20:56;21.90;;;17.03;;
7080;SDS011;3582;51.506;11.948;2023-04-06T01:23:23;24.80;;;17.02;;
7080;SDS011;3582;51.506;11.948;2023-04-06T01:25:49;16.73;;;14.93;;
7080;SDS011;3582;51.506;11.948;2023-04-06T01:28:15;21.43;;;16.57;;
7080;SDS011;3582;51.506;11.948;2023-04-06T01:30:41;18.23;;;15.60;;
7080;SDS011;3582;51.506;11.948;2023-04-06T01:33:07;19.13;;;16.53;;
7080;SDS011;3582;51.506;11.948;2023-04-06T01:35:32;18.63;;;16.67;;
7080;SDS011;3582;51.506;11.948;2023-04-06T01:37:58;19.90;;;16.40;;
7080;SDS011;3582;51.506;11.948;2023-04-06T01:40:25;20.90;;;15.90;;
7080;SDS011;3582;51.506;11.948;2023-04-06T01:42:51;21.30;;;17.63;;
7080;SDS011;3582;51.506;11.948;2023-04-06T01:45:16;21.83;;;18.20;;
7080;SDS011;3582;51.506;11.948;2023-04-06T01:47:42;20.47;;;17.17;;
7080;SDS011;3582;51.506;11.948;2023-04-06T01:50:08;16.70;;;14.37;;
7080;SDS011;3582;51.506;11.948;2023-04-06T01:52:35;17.25;;;14.32;;
7080;SDS011;3582;51.506;11.948;2023-04-06T01:55:01;18.57;;;15.43;;
7080;SDS011;3582;51.506;11.948;2023-04-06T01:57:26;22.70;;;15.67;;
7080;SDS011;3582;51.506;11.948;2023-04-06T01:59:52;17.17;;;14.60;;
7080;SDS011;3582;51.506;11.948;2023-04-06T02:02:18;20.97;;;16.70;;
7080;SDS011;3582;51.506;11.948;2023-04-06T02:04:44;19.07;;;16.70;;
7080;SDS011;3582;51.506;11.948;2023-04-06T02:07:10;20.47;;;16.53;;
7080;SDS011;3582;51.506;11.948;2023-04-06T02:09:36;17.25;;;15.45;;
7080;SDS011;3582;51.506;11.948;2023-04-06T02:12:02;16.90;;;14.97;;
7080;SDS011;3582;51.506;11.948;2023-04-06T02:14:28;21.67;;;16.05;;
7080;SDS011;3582;51.506;11.948;2023-04-06T02:16:54;22.83;;;16.10;;
7080;SDS011;3582;51.506;11.948;2023-04-06T02:19:20;20.53;;;15.50;;
7080;SDS011;3582;51.506;11.948;2023-04-06T02:21:47;17.63;;;15.85;;
7080;SDS011;3582;51.506;11.948;2023-04-06T02:24:13;16.43;;;14.70;;
7080;SDS011;3582;51.506;11.948;2023-04-06T02:26:39;19.08;;;16.20;;
7080;SDS011;3582;51.506;11.948;2023-04-06T02:29:05;20.98;;;17.20;;
7080;SDS011;3582;51.506;11.948;2023-04-06T02:31:32;19.33;;;15.75;;
7080;SDS011;3582;51.506;11.948;2023-04-06T02:33:57;20.63;;;15.37;;
7080;SDS011;3582;51.506;11.948;2023-04-06T02:36:23;19.23;;;15.67;;
7080;SDS011;3582;51.506;11.948;2023-04-06T02:38:49;18.07;;;14.90;;
7080;SDS011;3582;51.506;11.948;2023-04-06T02:41:16;21.15;;;15.82;;
7080;SDS011;3582;51.506;11.948;2023-04-06T02:43:42;19.27;;;16.27;;
7080;SDS011;3582;51.506;11.948;2023-04-06T02:46:08;19.20;;;15.30;;
7080;SDS011;3582;51.506;11.948;2023-04-06T02:48:34;21.47;;;17.03;;
7080;SDS011;3582;51.506;11.948;2023-04-06T02:51:02;15.32;;;13.70;;
7080;SDS011;3582;51.506;11.948;2023-04-06T02:53:28;17.55;;;15.70;;
7080;SDS011;3582;51.506;11.948;2023-04-06T02:55:54;18.67;;;14.32;;
7080;SDS011;3582;51.506;11.948;2023-04-06T02:58:20;22.05;;;14.02;;
7080;SDS011;3582;51.506;11.948;2023-04-06T03:00:46;22.52;;;15.15;;
7080;SDS011;3582;51.506;11.948;2023-04-06T03:03:12;20.30;;;13.73;;
7080;SDS011;3582;51.506;11.948;2023-04-06T03:05:38;20.33;;;14.70;;
7080;SDS011;3582;51.506;11.948;2023-04-06T03:08:04;20.00;;;15.73;;
7080;SDS011;3582;51.506;11.948;2023-04-06T03:10:30;23.77;;;16.10;;
7080;SDS011;3582;51.506;11.948;2023-04-06T03:12:56;26.23;;;14.23;;
7080;SDS011;3582;51.506;11.948;2023-04-06T03:15:22;23.90;;;16.27;;
7080;SDS011;3582;51.506;11.948;2023-04-06T03:17:48;21.57;;;15.13;;
7080;SDS011;3582;51.506;11.948;2023-04-06T03:20:14;23.67;;;15.73;;
7080;SDS011;3582;51.506;11.948;2023-04-06T03:22:40;21.35;;;15.35;;
7080;SDS011;3582;51.506;11.948;2023-04-06T03:25:06;19.57;;;15.97;;
7080;SDS011;3582;51.506;11.948;2023-04-06T03:27:32;29.88;;;15.88;;
7080;SDS011;3582;51.506;11.948;2023-04-06T03:29:58;19.57;;;15.03;;
7080;SDS011;3582;51.506;11.948;2023-04-06T03:32:24;21.75;;;14.63;;
7080;SDS011;3582;51.506;11.948;2023-04-06T03:34:50;21.30;;;17.07;;
7080;SDS011;3582;51.506;11.948;2023-04-06T03:37:16;21.33;;;15.47;;
7080;SDS011;3582;51.506;11.948;2023-04-06T03:39:42;19.63;;;15.70;;
7080;SDS011;3582;51.506;11.948;2023-04-06T03:42:07;19.93;;;15.70;;
7080;SDS011;3582;51.506;11.948;2023-04-06T03:44:33;20.90;;;15.90;;
7080;SDS011;3582;51.506;11.948;2023-04-06T03:46:59;22.73;;;15.10;;
7080;SDS011;3582;51.506;11.948;2023-04-06T03:49:27;22.83;;;16.30;;
7080;SDS011;3582;51.506;11.948;2023-04-06T03:51:53;18.60;;;15.70;;
7080;SDS011;3582;51.506;11.948;2023-04-06T03:54:19;21.05;;;14.82;;
7080;SDS011;3582;51.506;11.948;2023-04-06T03:56:45;23.10;;;15.13;;
7080;SDS011;3582;51.506;11.948;2023-04-06T03:59:11;21.53;;;16.27;;
7080;SDS011;3582;51.506;11.948;2023-04-06T04:01:36;21.10;;;14.33;;
7080;SDS011;3582;51.506;11.948;2023-04-06T04:04:04;23.35;;;16.30;;
7080;SDS011;3582;51.506;11.948;2023-04-06T04:06:30;22.02;;;15.75;;
7080;SDS011;3582;51.506;11.948;2023-04-06T04:08:56;26.02;;;17.13;;
7080;SDS011;3582;51.506;11.948;2023-04-06T04:11:22;24.97;;;16.90;;
7080;SDS011;3582;51.506;11.948;2023-04-06T04:13:48;16.37;;;14.67;;
7080;SDS011;3582;51.506;11.948;2023-04-06T04:16:14;19.13;;;14.40;;
7080;SDS011;3582;51.506;11.948;2023-04-06T04:18:40;17.23;;;13.90;;
7080;SDS011;3582;51.506;11.948;2023-04-06T04:21:08;18.92;;;17.02;;
7080;SDS011;3582;51.506;11.948;2023-04-06T04:23:34;19.47;;;16.07;;
7080;SDS011;3582;51.506;11.948;2023-04-06T04:26:00;17.60;;;14.73;;
7080;SDS011;3582;51.506;11.948;2023-04-06T04:28:26;22.80;;;16.43;;
7080;SDS011;3582;51.506;11.948;2023-04-06T04:30:52;23.80;;;16.35;;
7080;SDS011;3582;51.506;11.948;2023-04-06T04:33:18;34.10;;;17.93;;
7080;SDS011;3582;51.506;11.948;2023-04-06T04:35:44;24.03;;;17.10;;
7080;SDS011;3582;51.506;11.948;2023-04-06T04:38:10;21.70;;;17.67;;
7080;SDS011;3582;51.506;11.948;2023-04-06T04:40:36;24.87;;;18.60;;
7080;SDS011;3582;51.506;11.948;2023-04-06T04:43:02;23.37;;;16.50;;
7080;SDS011;3582;51.506;11.948;2023-04-06T04:45:27;23.77;;;17.57;;
7080;SDS011;3582;51.506;11.948;2023-04-06T04:47:53;26.33;;;17.17;;
7080;SDS011;3582;51.506;11.948;2023-04-06T04:50:19;28.53;;;18.37;;
7080;SDS011;3582;51.506;11.948;2023-04-06T04:52:45;26.30;;;18.93;;
7080;SDS011;3582;51.506;11.948;2023-04-06T04:55:11;19.80;;;17.57;;
7080;SDS011;3582;51.506;11.948;2023-04-06T04:57:37;24.60;;;17.27;;
7080;SDS011;3582;51.506;11.948;2023-04-06T05:00:03;29.30;;;18.37;;
7080;SDS011;3582;51.506;11.948;2023-04-06T05:02:29;24.90;;;15.80;;
7080;SDS011;3582;51.506;11.948;2023-04-06T05:04:55;22.30;;;17.50;;
7080;SDS011;3582;51.506;11.948;2023-04-06T05:07:21;36.10;;;20.27;;
7080;SDS011;3582;51.506;11.948;2023-04-06T05:09:47;21.15;;;17.58;;
7080;SDS011;3582;51.506;11.948;2023-04-06T05:12:13;32.83;;;18.83;;
7080;SDS011;3582;51.506;11.948;2023-04-06T05:14:39;27.40;;;18.42;;
7080;SDS011;3582;51.506;11.948;2023-04-06T05:17:06;29.90;;;18.67;;
7080;SDS011;3582;51.506;11.948;2023-04-06T05:19:32;20.30;;;17.13;;
7080;SDS011;3582;51.506;11.948;2023-04-06T05:21:58;21.90;;;18.17;;
7080;SDS011;3582;51.506;11.948;2023-04-06T05:24:24;22.20;;;18.13;;
7080;SDS011;3582;51.506;11.948;2023-04-06T05:26:50;25.42;;;17.70;;
7080;SDS011;3582;51.506;11.948;2023-04-06T05:29:16;28.77;;;19.20;;
7080;SDS011;3582;51.506;11.948;2023-04-06T05:31:42;22.27;;;17.60;;
7080;SDS011;3582;51.506;11.948;2023-04-06T05:34:08;22.67;;;16.08;;
7080;SDS011;3582;51.506;11.948;2023-04-06T05:36:34;22.35;;;18.23;;
7080;SDS011;3582;51.506;11.948;2023-04-06T05:39:00;21.77;;;18.52;;
7080;SDS011;3582;51.506;11.948;2023-04-06T05:41:26;31.80;;;19.55;;
7080;SDS011;3582;51.506;11.948;2023-04-06T05:43:52;22.37;;;18.20;;
7080;SDS011;3582;51.506;11.948;2023-04-06T05:46:18;24.23;;;18.30;;
7080;SDS011;3582;51.506;11.948;2023-04-06T05:48:45;20.65;;;16.60;;
7080;SDS011;3582;51.506;11.948;2023-04-06T05:51:11;26.80;;;16.57;;
7080;SDS011;3582;51.506;11.948;2023-04-06T05:53:37;18.77;;;16.77;;
7080;SDS011;3582;51.506;11.948;2023-04-06T05:56:03;19.38;;;17.17;;
7080;SDS011;3582;51.506;11.948;2023-04-06T05:58:29;23.77;;;18.05;;
7080;SDS011;3582;51.506;11.948;2023-04-06T06:00:58;18.15;;;16.25;;
7080;SDS011;3582;51.506;11.948;2023-04-06T06:03:24;21.02;;;17.70;;
7080;SDS011;3582;51.506;11.948;2023-04-06T06:05:50;24.40;;;17.45;;
7080;SDS011;3582;51.506;11.948;2023-04-06T06:08:16;22.33;;;16.80;;
7080;SDS011;3582;51.506;11.948;2023-04-06T06:10:42;23.67;;;17.43;;
7080;SDS011;3582;51.506;11.948;2023-04-06T06:13:08;22.60;;;18.90;;
7080;SDS011;3582;51.506;11.948;2023-04-06T06:15:34;19.17;;;16.08;;
7080;SDS011;3582;51.506;11.948;2023-04-06T06:18:00;19.93;;;16.00;;
7080;SDS011;3582;51.506;11.948;2023-04-06T06:20:26;21.88;;;16.98;;
7080;SDS011;3582;51.506;11.948;2023-04-06T06:22:52;18.30;;;16.20;;
7080;SDS011;3582;51.506;11.948;2023-04-06T06:25:18;23.97;;;17.20;;
7080;SDS011;3582;51.506;11.948;2023-04-06T06:27:44;24.77;;;16.45;;
7080;SDS011;3582;51.506;11.948;2023-04-06T06:30:10;24.50;;;18.80;;
7080;SDS011;3582;51.506;11.948;2023-04-06T06:32:36;25.70;;;20.40;;
7080;SDS011;3582;51.506;11.948;2023-04-06T06:35:02;29.47;;;18.03;;
7080;SDS011;3582;51.506;11.948;2023-04-06T06:37:28;18.88;;;16.80;;
7080;SDS011;3582;51.506;11.948;2023-04-06T06:39:54;26.80;;;16.13;;
7080;SDS011;3582;51.506;11.948;2023-04-06T06:42:20;17.20;;;15.10;;
7080;SDS011;3582;51.506;11.948;2023-04-06T06:44:46;19.80;;;17.67;;
7080;SDS011;3582;51.506;11.948;2023-04-06T06:47:12;19.52;;;17.25;;
7080;SDS011;3582;51.506;11.948;2023-04-06T06:49:38;17.50;;;15.50;;
7080;SDS011;3582;51.506;11.948;2023-04-06T06:52:04;24.50;;;16.90;;
7080;SDS011;3582;51.506;11.948;2023-04-06T06:54:30;18.73;;;16.90;;
7080;SDS011;3582;51.506;11.948;2023-04-06T06:56:56;17.63;;;15.83;;
7080;SDS011;3582;51.506;11.948;2023-04-06T06:59:22;26.53;;;15.87;;
7080;SDS011;3582;51.506;11.948;2023-04-06T07:01:49;16.80;;;14.80;;
7080;SDS011;3582;51.506;11.948;2023-04-06T07:04:15;20.08;;;15.18;;
7080;SDS011;3582;51.506;11.948;2023-04-06T07:06:41;20.13;;;17.40;;
7080;SDS011;3582;51.506;11.948;2023-04-06T07:09:07;30.07;;;21.10;;
7080;SDS011;3582;51.506;11.948;2023-04-06T07:11:33;24.47;;;17.07;;
7080;SDS011;3582;51.506;11.948;2023-04-06T07:13:59;19.23;;;15.30;;
7080;SDS011;3582;51.506;11.948;2023-04-06T07:16:25;17.43;;;14.90;;
7080;SDS011;3582;51.506;11.948;2023-04-06T07:18:51;15.73;;;13.60;;
7080;SDS011;3582;51.506;11.948;2023-04-06T07:21:17;15.37;;;13.33;;
7080;SDS011;3582;51.506;11.948;2023-04-06T07:23:42;20.50;;;14.77;;
7080;SDS011;3582;51.506;11.948;2023-04-06T07:26:09;14.97;;;12.37;;
7080;SDS011;3582;51.506;11.948;2023-04-06T07:28:35;13.88;;;11.10;;
7080;SDS011;3582;51.506;11.948;2023-04-06T07:31:01;10.77;;;9.90;;
7080;SDS011;3582;51.506;11.948;2023-04-06T07:33:26;12.73;;;10.57;;
7080;SDS011;3582;51.506;11.948;2023-04-06T07:35:55;12.23;;;10.35;;
7080;SDS011;3582;51.506;11.948;2023-04-06T07:38:21;10.35;;;9.50;;
7080;SDS011;3582;51.506;11.948;2023-04-06T07:40:47;11.77;;;10.67;;
7080;SDS011;3582;51.506;11.948;2023-04-06T07:43:13;13.77;;;11.50;;
7080;SDS011;3582;51.506;11.948;2023-04-06T07:45:39;14.30;;;11.23;;
7080;SDS011;3582;51.506;11.948;2023-04-06T07:48:05;12.90;;;11.57;;
7080;SDS011;3582;51.506;11.948;2023-04-06T07:50:31;16.73;;;13.57;;
7080;SDS011;3582;51.506;11.948;2023-04-06T07:52:57;12.30;;;11.10;;
7080;SDS011;3582;51.506;11.948;2023-04-06T07:55:23;13.17;;;11.97;;
7080;SDS011;3582;51.506;11.948;2023-04-06T07:57:49;16.45;;;13.38;;
7080;SDS011;3582;51.506;11.948;2023-04-06T08:00:15;12.90;;;11.80;;
7080;SDS011;3582;51.506;11.948;2023-04-06T08:02:41;12.35;;;10.95;;
7080;SDS011;3582;51.506;11.948;2023-04-06T08:05:08;13.82;;;12.27;;
7080;SDS011;3582;51.506;11.948;2023-04-06T08:07:34;11.60;;;10.50;;
7080;SDS011;3582;51.506;11.948;2023-04-06T08:10:01;15.30;;;9.65;;
7080;SDS011;3582;51.506;11.948;2023-04-06T08:12:27;18.52;;;9.95;;
7080;SDS011;3582;51.506;11.948;2023-04-06T08:14:53;18.33;;;11.30;;
7080;SDS011;3582;51.506;11.948;2023-04-06T08:17:19;12.67;;;11.47;;
7080;SDS011;3582;51.506;11.948;2023-04-06T08:19:45;10.65;;;9.43;;
7080;SDS011;3582;51.506;11.948;2023-04-06T08:22:11;11.90;;;10.50;;
7080;SDS011;3582;51.506;11.948;2023-04-06T08:24:37;20.73;;;10.60;;
7080;SDS011;3582;51.506;11.948;2023-04-06T08:27:03;12.18;;;11.05;;
7080;SDS011;3582;51.506;11.948;2023-04-06T08:29:29;11.43;;;10.43;;
7080;SDS011;3582;51.506;11.948;2023-04-06T08:31:55;12.45;;;11.15;;
7080;SDS011;3582;51.506;11.948;2023-04-06T08:34:21;13.40;;;9.18;;
7080;SDS011;3582;51.506;11.948;2023-04-06T08:36:48;15.55;;;9.55;;
7080;SDS011;3582;51.506;11.948;2023-04-06T08:39:13;8.70;;;7.87;;
7080;SDS011;3582;51.506;11.948;2023-04-06T08:41:42;10.20;;;8.57;;
7080;SDS011;3582;51.506;11.948;2023-04-06T08:44:09;15.15;;;10.40;;
7080;SDS011;3582;51.506;11.948;2023-04-06T08:46:35;15.90;;;10.10;;
7080;SDS011;3582;51.506;11.948;2023-04-06T08:49:02;11.50;;;10.30;;
7080;SDS011;3582;51.506;11.948;2023-04-06T08:51:31;11.10;;;10.10;;
7080;SDS011;3582;51.506;11.948;2023-04-06T08:53:58;16.17;;;9.70;;
7080;SDS011;3582;51.506;11.948;2023-04-06T08:56:24;12.50;;;9.65;;
7080;SDS011;3582;51.506;11.948;2023-04-06T08:58:51;10.77;;;9.68;;
7080;SDS011;3582;51.506;11.948;2023-04-06T09:01:18;11.25;;;9.65;;
7080;SDS011;3582;51.506;11.948;2023-04-06T09:03:45;11.35;;;10.35;;
7080;SDS011;3582;51.506;11.948;2023-04-06T09:06:12;12.32;;;10.30;;
7080;SDS011;3582;51.506;11.948;2023-04-06T09:08:39;13.07;;;10.05;;
7080;SDS011;3582;51.506;11.948;2023-04-06T09:11:05;10.10;;;9.20;;
7080;SDS011;3582;51.506;11.948;2023-04-06T09:13:31;12.30;;;9.90;;
7080;SDS011;3582;51.506;11.948;2023-04-06T09:16:09;11.50;;;10.50;;
7080;SDS011;3582;51.506;11.948;2023-04-06T09:18:35;12.40;;;10.07;;
7080;SDS011;3582;51.506;11.948;2023-04-06T09:21:02;16.20;;;10.77;;
7080;SDS011;3582;51.506;11.948;2023-04-06T09:23:28;11.80;;;9.93;;
7080;SDS011;3582;51.506;11.948;2023-04-06T09:26:07;12.03;;;10.83;;
7080;SDS011;3582;51.506;11.948;2023-04-06T09:28:53;12.53;;;11.23;;
7080;SDS011;3582;51.506;11.948;2023-04-06T09:31:22;11.60;;;10.53;;
7080;SDS011;3582;51.506;11.948;2023-04-06T09:33:49;14.70;;;11.00;;
7080;SDS011;3582;51.506;11.948;2023-04-06T09:36:15;15.07;;;10.37;;
7080;SDS011;3582;51.506;11.948;2023-04-06T09:38:54;13.03;;;11.27;;
7080;SDS011;3582;51.506;11.948;2023-04-06T09:41:24;16.40;;;11.37;;
7080;SDS011;3582;51.506;11.948;2023-04-06T09:43:51;13.40;;;9.93;;
7080;SDS011;3582;51.506;11.948;2023-04-06T09:46:17;11.47;;;10.10;;
7080;SDS011;3582;51.506;11.948;2023-04-06T09:48:44;9.83;;;8.60;;
7080;SDS011;3582;51.506;11.948;2023-04-06T09:51:10;11.87;;;10.50;;
7080;SDS011;3582;51.506;11.948;2023-04-06T09:53:37;10.30;;;9.40;;
7080;SDS011;3582;51.506;11.948;2023-04-06T09:56:04;15.13;;;10.47;;
7080;SDS011;3582;51.506;11.948;2023-04-06T09:58:36;13.57;;;12.00;;
7080;SDS011;3582;51.506;11.948;2023-04-06T10:01:05;19.23;;;12.80;;
7080;SDS011;3582;51.506;11.948;2023-04-06T10:03:38;11.93;;;10.63;;
7080;SDS011;3582;51.506;11.948;2023-04-06T10:06:10;11.60;;;9.23;;
7080;SDS011;3582;51.506;11.948;2023-04-06T10:08:37;11.80;;;10.60;;
7080;SDS011;3582;51.506;11.948;2023-04-06T10:11:05;10.43;;;9.50;;
7080;SDS011;3582;51.506;11.948;2023-04-06T10:13:31;9.90;;;8.57;;
7080;SDS011;3582;51.506;11.948;2023-04-06T10:15:57;18.87;;;9.73;;
7080;SDS011;3582;51.506;11.948;2023-04-06T10:18:26;11.07;;;9.93;;
7080;SDS011;3582;51.506;11.948;2023-04-06T10:21:04;9.43;;;8.10;;
7080;SDS011;3582;51.506;11.948;2023-04-06T10:25:58;9.70;;;8.90;;
7080;SDS011;3582;51.506;11.948;2023-04-06T10:28:24;13.03;;;10.03;;
7080;SDS011;3582;51.506;11.948;2023-04-06T10:30:57;9.90;;;7.93;;
7080;SDS011;3582;51.506;11.948;2023-04-06T10:33:23;8.63;;;7.73;;
7080;SDS011;3582;51.506;11.948;2023-04-06T10:35:49;9.03;;;7.33;;
7080;SDS011;3582;51.506;11.948;2023-04-06T10:38:15;12.90;;;8.47;;
7080;SDS011;3582;51.506;11.948;2023-04-06T10:40:45;10.20;;;9.07;;
7080;SDS011;3582;51.506;11.948;2023-04-06T10:43:21;14.33;;;8.53;;
7080;SDS011;3582;51.506;11.948;2023-04-06T10:45:57;9.60;;;7.63;;
7080;SDS011;3582;51.506;11.948;2023-04-06T10:48:25;10.53;;;8.27;;
7080;SDS011;3582;51.506;11.948;2023-04-06T10:51:01;10.40;;;9.17;;
7080;SDS011;3582;51.506;11.948;2023-04-06T10:53:33;8.27;;;7.40;;
7080;SDS011;3582;51.506;11.948;2023-04-06T10:55:59;9.40;;;8.50;;
7080;SDS011;3582;51.506;11.948;2023-04-06T10:58:26;9.30;;;8.60;;
7080;SDS011;3582;51.506;11.948;2023-04-06T11:00:53;6.97;;;6.37;;
7080;SDS011;3582;51.506;11.948;2023-04-06T11:03:19;15.03;;;8.13;;
7080;SDS011;3582;51.506;11.948;2023-04-06T11:05:45;9.40;;;8.37;;
7080;SDS011;3582;51.506;11.948;2023-04-06T11:08:22;9.37;;;8.27;;
7080;SDS011;3582;51.506;11.948;2023-04-06T11:10:48;10.77;;;8.50;;
7080;SDS011;3582;51.506;11.948;2023-04-06T11:13:14;16.83;;;8.90;;
7080;SDS011;3582;51.506;11.948;2023-04-06T11:15:40;8.83;;;7.20;;
7080;SDS011;3582;51.506;11.948;2023-04-06T11:18:06;9.37;;;7.77;;
7080;SDS011;3582;51.506;11.948;2023-04-06T11:20:32;8.90;;;7.70;;
7080;SDS011;3582;51.506;11.948;2023-04-06T11:22:58;9.60;;;8.70;;
7080;SDS011;3582;51.506;11.948;2023-04-06T11:25:28;10.17;;;8.80;;
7080;SDS011;3582;51.506;11.948;2023-04-06T11:27:56;10.87;;;9.77;;
7080;SDS011;3582;51.506;11.948;2023-04-06T11:30:22;9.67;;;8.67;;
7080;SDS011;3582;51.506;11.948;2023-04-06T11:32:48;11.77;;;8.40;;
7080;SDS011;3582;51.506;11.948;2023-04-06T11:35:21;9.47;;;8.40;;
7080;SDS011;3582;51.506;11.948;2023-04-06T11:37:50;11.87;;;8.60;;
7080;SDS011;3582;51.506;11.948;2023-04-06T11:40:20;9.37;;;7.97;;
7080;SDS011;3582;51.506;11.948;2023-04-06T11:42:51;9.20;;;7.60;;
7080;SDS011;3582;51.506;11.948;2023-04-06T11:45:17;7.57;;;6.97;;
7080;SDS011;3582;51.506;11.948;2023-04-06T11:47:43;7.23;;;6.63;;
7080;SDS011;3582;51.506;11.948;2023-04-06T11:50:10;7.00;;;5.83;;
7080;SDS011;3582;51.506;11.948;2023-04-06T11:52:37;10.80;;;7.40;;
7080;SDS011;3582;51.506;11.948;2023-04-06T11:55:13;10.20;;;6.43;;
7080;SDS011;3582;51.506;11.948;2023-04-06T11:57:40;11.47;;;8.50;;
7080;SDS011;3582;51.506;11.948;2023-04-06T12:00:07;7.07;;;6.47;;
7080;SDS011;3582;51.506;11.948;2023-04-06T12:02:34;7.73;;;7.13;;
7080;SDS011;3582;51.506;11.948;2023-04-06T12:05:01;9.33;;;6.93;;
7080;SDS011;3582;51.506;11.948;2023-04-06T12:07:27;8.77;;;7.93;;
7080;SDS011;3582;51.506;11.948;2023-04-06T12:09:53;12.17;;;7.33;;
7080;SDS011;3582;51.506;11.948;2023-04-06T12:12:20;15.23;;;9.53;;
7080;SDS011;3582;51.506;11.948;2023-04-06T12:14:46;8.43;;;7.63;;
7080;SDS011;3582;51.506;11.948;2023-04-06T12:17:11;10.63;;;7.70;;
7080;SDS011;3582;51.506;11.948;2023-04-06T12:19:37;8.13;;;7.43;;
7080;SDS011;3582;51.506;11.948;2023-04-06T12:22:03;9.27;;;8.47;;
7080;SDS011;3582;51.506;11.948;2023-04-06T12:24:30;11.40;;;8.33;;
7080;SDS011;3582;51.506;11.948;2023-04-06T12:26:56;8.50;;;7.70;;
7080;SDS011;3582;51.506;11.948;2023-04-06T12:29:22;8.63;;;7.37;;
7080;SDS011;3582;51.506;11.948;2023-04-06T12:31:48;9.20;;;6.53;;
7080;SDS011;3582;51.506;11.948;2023-04-06T12:34:14;8.50;;;7.60;;
7080;SDS011;3582;51.506;11.948;2023-04-06T12:36:40;9.23;;;8.33;;
7080;SDS011;3582;51.506;11.948;2023-04-06T12:39:06;7.20;;;6.60;;
7080;SDS011;3582;51.506;11.948;2023-04-06T12:41:32;8.03;;;7.37;;
7080;SDS011;3582;51.506;11.948;2023-04-06T12:43:58;7.93;;;7.13;;
7080;SDS011;3582;51.506;11.948;2023-04-06T12:46:27;10.87;;;7.87;;
7080;SDS011;3582;51.506;11.948;2023-04-06T12:48:55;7.97;;;7.17;;
7080;SDS011;3582;51.506;11.948;2023-04-06T12:51:22;12.03;;;6.80;;
7080;SDS011;3582;51.506;11.948;2023-04-06T12:53:48;8.90;;;8.10;;
7080;SDS011;3582;51.506;11.948;2023-04-06T12:56:16;8.87;;;7.97;;
7080;SDS011;3582;51.506;11.948;2023-04-06T12:58:42;9.47;;;8.37;;
7080;SDS011;3582;51.506;11.948;2023-04-06T13:01:09;7.50;;;6.97;;
7080;SDS011;3582;51.506;11.948;2023-04-06T13:03:36;8.97;;;8.07;;
7080;SDS011;3582;51.506;11.948;2023-04-06T13:06:02;8.50;;;7.70;;
7080;SDS011;3582;51.506;11.948;2023-04-06T13:08:28;8.60;;;7.80;;
7080;SDS011;3582;51.506;11.948;2023-04-06T13:10:54;9.23;;;8.27;;
7080;SDS011;3582;51.506;11.948;2023-04-06T13:13:24;9.47;;;8.60;;
7080;SDS011;3582;51.506;11.948;2023-04-06T13:15:51;8.67;;;7.90;;
7080;SDS011;3582;51.506;11.948;2023-04-06T13:18:17;8.53;;;7.67;;
7080;SDS011;3582;51.506;11.948;2023-04-06T13:20:43;8.97;;;7.93;;
7080;SDS011;3582;51.506;11.948;2023-04-06T13:23:09;9.13;;;8.30;;
7080;SDS011;3582;51.506;11.948;2023-04-06T13:25:36;8.83;;;8.07;;
7080;SDS011;3582;51.506;11.948;2023-04-06T13:28:02;10.43;;;7.73;;
7080;SDS011;3582;51.506;11.948;2023-04-06T13:30:28;9.07;;;8.10;;
7080;SDS011;3582;51.506;11.948;2023-04-06T13:32:54;10.50;;;9.43;;
7080;SDS011;3582;51.506;11.948;2023-04-06T13:35:20;8.13;;;6.90;;
7080;SDS011;3582;51.506;11.948;2023-04-06T13:37:46;8.80;;;7.50;;
7080;SDS011;3582;51.506;11.948;2023-04-06T13:40:13;9.33;;;8.53;;
7080;SDS011;3582;51.506;11.948;2023-04-06T13:42:39;12.77;;;8.10;;
7080;SDS011;3582;51.506;11.948;2023-04-06T13:45:06;8.97;;;8.17;;
7080;SDS011;3582;51.506;11.948;2023-04-06T13:47:33;7.53;;;6.93;;
7080;SDS011;3582;51.506;11.948;2023-04-06T13:49:59;7.77;;;7.10;;
7080;SDS011;3582;51.506;11.948;2023-04-06T13:52:25;8.60;;;7.80;;
7080;SDS011;3582;51.506;11.948;2023-04-06T13:54:52;8.60;;;7.90;;
7080;SDS011;3582;51.506;11.948;2023-04-06T13:57:18;7.47;;;6.77;;
7080;SDS011;3582;51.506;11.948;2023-04-06T13:59:44;8.73;;;7.80;;
7080;SDS011;3582;51.506;11.948;2023-04-06T14:02:10;9.40;;;8.00;;
7080;SDS011;3582;51.506;11.948;2023-04-06T14:04:36;12.40;;;8.97;;
7080;SDS011;3582;51.506;11.948;2023-04-06T14:07:03;8.73;;;7.87;;
7080;SDS011;3582;51.506;11.948;2023-04-06T14:09:32;11.03;;;8.90;;
7080;SDS011;3582;51.506;11.948;2023-04-06T14:11:58;9.07;;;8.30;;
7080;SDS011;3582;51.506;11.948;2023-04-06T14:14:24;8.90;;;8.20;;
7080;SDS011;3582;51.506;11.948;2023-04-06T14:16:51;8.63;;;7.83;;
7080;SDS011;3582;51.506;11.948;2023-04-06T14:19:17;10.30;;;7.63;;
7080;SDS011;3582;51.506;11.948;2023-04-06T14:21:47;7.40;;;6.80;;
7080;SDS011;3582;51.506;11.948;2023-04-06T14:24:13;7.30;;;6.60;;
7080;SDS011;3582;51.506;11.948;2023-04-06T14:26:39;7.47;;;6.87;;
7080;SDS011;3582;51.506;11.948;2023-04-06T14:29:09;7.70;;;7.00;;
7080;SDS011;3582;51.506;11.948;2023-04-06T14:31:35;7.87;;;7.27;;
7080;SDS011;3582;51.506;11.948;2023-04-06T14:34:02;8.23;;;7.40;;
7080;SDS011;3582;51.506;11.948;2023-04-06T14:36:28;7.53;;;6.93;;
7080;SDS011;3582;51.506;11.948;2023-04-06T14:38:58;6.73;;;6.30;;
7080;SDS011;3582;51.506;11.948;2023-04-06T14:41:24;8.40;;;7.70;;